Aviation Digital Data Service (ADDS)

Output produced by METARs form (0309 UTC 05 June 2020)
found at http://www.aviationweather.gov/metar/data/
 
METAR text: WBSB 050300Z 24003KT 9999 TS FEW015 FEW016CB BKN140 29/25 Q1011 NOSIG
Conditions at: WBSB (BRUNEI INTL AIRP, MY) observed 0300 UTC 05 June 2020
Temperature: 29.0°C (84°F)
Dewpoint: 25.0°C (77°F) [RH = 79%]
Pressure (altimeter): 29.85 inches Hg (1011.0 mb)
Winds: from the WSW (240 degrees) at 3 MPH (3 knots; 1.5 m/s)
Visibility: 6 or more miles (10+ km)
Ceiling: 14000 feet AGL
Clouds: few clouds at 1500 feet AGL
few clouds at 1600 feet AGL
broken clouds at 14000 feet AGL
Weather: TS  (thunderstorm)

METAR text: WBSB 050230Z 21004KT 9999 TS FEW015 FEW016CB BKN140 28/25 Q1011 RERA NOSIG
Conditions at: WBSB (BRUNEI INTL AIRP, MY) observed 0230 UTC 05 June 2020
Temperature: 28.0°C (82°F)
Dewpoint: 25.0°C (77°F) [RH = 84%]
Pressure (altimeter): 29.85 inches Hg (1011.0 mb)
Winds: from the SSW (210 degrees) at 5 MPH (4 knots; 2.1 m/s)
Visibility: 6 or more miles (10+ km)
Ceiling: 14000 feet AGL
Clouds: few clouds at 1500 feet AGL
few clouds at 1600 feet AGL
broken clouds at 14000 feet AGL
Weather: TS  (thunderstorm)

METAR text: WBSB 050200Z 20005KT 9999 TS FEW014 FEW015CB BKN140 27/26 Q1011 RERA NOSIG
Conditions at: WBSB (BRUNEI INTL AIRP, MY) observed 0200 UTC 05 June 2020
Temperature: 27.0°C (81°F)
Dewpoint: 26.0°C (79°F) [RH = 94%]
Pressure (altimeter): 29.85 inches Hg (1011.0 mb)
Winds: from the SSW (200 degrees) at 6 MPH (5 knots; 2.6 m/s)
Visibility: 6 or more miles (10+ km)
Ceiling: 14000 feet AGL
Clouds: few clouds at 1400 feet AGL
few clouds at 1500 feet AGL
broken clouds at 14000 feet AGL
Weather: TS  (thunderstorm)

METAR text: WBSB 050130Z 16003KT 9999 -TSRA FEW014 FEW015CB BKN150 26/25 Q1011 NOSIG
Conditions at: WBSB (BRUNEI INTL AIRP, MY) observed 0130 UTC 05 June 2020
Temperature: 26.0°C (79°F)
Dewpoint: 25.0°C (77°F) [RH = 94%]
Pressure (altimeter): 29.85 inches Hg (1011.0 mb)
Winds: from the SSE (160 degrees) at 3 MPH (3 knots; 1.5 m/s)
Visibility: 6 or more miles (10+ km)
Ceiling: 15000 feet AGL
Clouds: few clouds at 1400 feet AGL
few clouds at 1500 feet AGL
broken clouds at 15000 feet AGL
Weather: -TSRA  (light rain associated with thunderstorm(s))

METAR text: WBSB 050100Z 16004KT 9999 -RA FEW007 FEW015CB BKN150 26/25 Q1012 NOSIG
Conditions at: WBSB (BRUNEI INTL AIRP, MY) observed 0100 UTC 05 June 2020
Temperature: 26.0°C (79°F)
Dewpoint: 25.0°C (77°F) [RH = 94%]
Pressure (altimeter): 29.88 inches Hg (1012.0 mb)
Winds: from the SSE (160 degrees) at 5 MPH (4 knots; 2.1 m/s)
Visibility: 6 or more miles (10+ km)
Ceiling: 15000 feet AGL
Clouds: few clouds at 700 feet AGL
few clouds at 1500 feet AGL
broken clouds at 15000 feet AGL
Weather: -RA  (light rain)

METAR text: WBSB 050030Z 17003KT 9999 -RA FEW007 FEW015CB BKN150 26/25 Q1011 NOSIG
Conditions at: WBSB (BRUNEI INTL AIRP, MY) observed 0030 UTC 05 June 2020
Temperature: 26.0°C (79°F)
Dewpoint: 25.0°C (77°F) [RH = 94%]
Pressure (altimeter): 29.85 inches Hg (1011.0 mb)
Winds: from the S (170 degrees) at 3 MPH (3 knots; 1.5 m/s)
Visibility: 6 or more miles (10+ km)
Ceiling: 15000 feet AGL
Clouds: few clouds at 700 feet AGL
few clouds at 1500 feet AGL
broken clouds at 15000 feet AGL
Weather: -RA  (light rain)

METAR text: WBSB 050000Z 20001KT 9000 -RA FEW007 FEW015CB BKN150 25/24 Q1011 NOSIG
Conditions at: WBSB (BRUNEI INTL AIRP, MY) observed 0000 UTC 05 June 2020
Temperature: 25.0°C (77°F)
Dewpoint: 24.0°C (75°F) [RH = 94%]
Pressure (altimeter): 29.85 inches Hg (1011.0 mb)
Winds: from the SSW (200 degrees) at 1 MPH (1 knots; 0.5 m/s)
Visibility: 6 miles ( 9 km)
Ceiling: 15000 feet AGL
Clouds: few clouds at 700 feet AGL
few clouds at 1500 feet AGL
broken clouds at 15000 feet AGL
Weather: -RA  (light rain)

METAR text: WBSB 042330Z 20002KT 8000 -RA FEW005 FEW015CB BKN150 25/24 Q1011 RETS NOSIG
Conditions at: WBSB (BRUNEI INTL AIRP, MY) observed 2330 UTC 04 June 2020
Temperature: 25.0°C (77°F)
Dewpoint: 24.0°C (75°F) [RH = 94%]
Pressure (altimeter): 29.85 inches Hg (1011.0 mb)
Winds: from the SSW (200 degrees) at 2 MPH (2 knots; 1.0 m/s)
Visibility: 5 miles ( 8 km)
Ceiling: 15000 feet AGL
Clouds: few clouds at 500 feet AGL
few clouds at 1500 feet AGL
broken clouds at 15000 feet AGL
Weather: -RA  (light rain)

METAR text: WBSB 042300Z 19001KT 8000 -RA FEW005 FEW015CB BKN150 25/24 Q1010 RETS NOSIG
Conditions at: WBSB (BRUNEI INTL AIRP, MY) observed 2300 UTC 04 June 2020
Temperature: 25.0°C (77°F)
Dewpoint: 24.0°C (75°F) [RH = 94%]
Pressure (altimeter): 29.82 inches Hg (1010.0 mb)
Winds: from the S (190 degrees) at 1 MPH (1 knots; 0.5 m/s)
Visibility: 5 miles ( 8 km)
Ceiling: 15000 feet AGL
Clouds: few clouds at 500 feet AGL
few clouds at 1500 feet AGL
broken clouds at 15000 feet AGL
Weather: -RA  (light rain)

METAR text: WBSB 042230Z 22003KT 8000 -TSRA FEW003 FEW015CB BKN150 24/23 Q1010 TEMPO 2000 +TSRA
Conditions at: WBSB (BRUNEI INTL AIRP, MY) observed 2230 UTC 04 June 2020
Temperature: 24.0°C (75°F)
Dewpoint: 23.0°C (73°F) [RH = 94%]
Pressure (altimeter): 29.82 inches Hg (1010.0 mb)
Winds: from the SW (220 degrees) at 3 MPH (3 knots; 1.5 m/s)
Visibility: 5 miles ( 8 km)
Ceiling: 15000 feet AGL
Clouds: few clouds at 300 feet AGL
few clouds at 1500 feet AGL
broken clouds at 15000 feet AGL
Weather: -TSRA  (light rain associated with thunderstorm(s))

METAR text: WBSB 042200Z 03009KT 2500 +TSRA FEW003 SCT012 SCT015CB BKN150 23/23 Q1010 TEMPO 2000 +TSRA
Conditions at: WBSB (BRUNEI INTL AIRP, MY) observed 2200 UTC 04 June 2020
Temperature: 23.0°C (73°F)
Dewpoint: 23.0°C (73°F) [RH = 100%]
Pressure (altimeter): 29.82 inches Hg (1010.0 mb)
Winds: from the NNE (30 degrees) at 10 MPH (9 knots; 4.6 m/s)
Visibility: 1.55 miles (2.49 km)
Ceiling: 15000 feet AGL
Clouds: few clouds at 300 feet AGL
scattered clouds at 1200 feet AGL
scattered clouds at 1500 feet AGL
broken clouds at 15000 feet AGL
Weather: +TSRA  (heavy rain associated with thunderstorm(s))

METAR text: WBSB 042130Z 05001KT 8000 -TSRA FEW003 FEW015CB BKN150 23/23 Q1010 NOSIG
Conditions at: WBSB (BRUNEI INTL AIRP, MY) observed 2130 UTC 04 June 2020
Temperature: 23.0°C (73°F)
Dewpoint: 23.0°C (73°F) [RH = 100%]
Pressure (altimeter): 29.82 inches Hg (1010.0 mb)
Winds: from the NE (50 degrees) at 1 MPH (1 knots; 0.5 m/s)
Visibility: 5 miles ( 8 km)
Ceiling: 15000 feet AGL
Clouds: few clouds at 300 feet AGL
few clouds at 1500 feet AGL
broken clouds at 15000 feet AGL
Weather: -TSRA  (light rain associated with thunderstorm(s))

METAR text: WBSB 042100Z 31002KT 8000 -TSRA FEW003 FEW015CB BKN150 23/23 Q1009 NOSIG
Conditions at: WBSB (BRUNEI INTL AIRP, MY) observed 2100 UTC 04 June 2020
Temperature: 23.0°C (73°F)
Dewpoint: 23.0°C (73°F) [RH = 100%]
Pressure (altimeter): 29.79 inches Hg (1009.0 mb)
Winds: from the NW (310 degrees) at 2 MPH (2 knots; 1.0 m/s)
Visibility: 5 miles ( 8 km)
Ceiling: 15000 feet AGL
Clouds: few clouds at 300 feet AGL
few clouds at 1500 feet AGL
broken clouds at 15000 feet AGL
Weather: -TSRA  (light rain associated with thunderstorm(s))

METAR text: WBSB 042030Z 21004KT 8000 -TSRA FEW003 FEW015CB BKN150 24/23 Q1009 NOSIG
Conditions at: WBSB (BRUNEI INTL AIRP, MY) observed 2030 UTC 04 June 2020
Temperature: 24.0°C (75°F)
Dewpoint: 23.0°C (73°F) [RH = 94%]
Pressure (altimeter): 29.79 inches Hg (1009.0 mb)
Winds: from the SSW (210 degrees) at 5 MPH (4 knots; 2.1 m/s)
Visibility: 5 miles ( 8 km)
Ceiling: 15000 feet AGL
Clouds: few clouds at 300 feet AGL
few clouds at 1500 feet AGL
broken clouds at 15000 feet AGL
Weather: -TSRA  (light rain associated with thunderstorm(s))

METAR text: WBSB 042000Z 28001KT 8000 -TSRA FEW003 FEW015CB BKN150 24/22 Q1009 NOSIG
Conditions at: WBSB (BRUNEI INTL AIRP, MY) observed 2000 UTC 04 June 2020
Temperature: 24.0°C (75°F)
Dewpoint: 22.0°C (72°F) [RH = 89%]
Pressure (altimeter): 29.79 inches Hg (1009.0 mb)
Winds: from the W (280 degrees) at 1 MPH (1 knots; 0.5 m/s)
Visibility: 5 miles ( 8 km)
Ceiling: 15000 feet AGL
Clouds: few clouds at 300 feet AGL
few clouds at 1500 feet AGL
broken clouds at 15000 feet AGL
Weather: -TSRA  (light rain associated with thunderstorm(s))

METAR text: WBSB 041930Z 09004KT 8000 -TSRA FEW012 FEW015CB BKN140 23/22 Q1009 NOSIG
Conditions at: WBSB (BRUNEI INTL AIRP, MY) observed 1930 UTC 04 June 2020
Temperature: 23.0°C (73°F)
Dewpoint: 22.0°C (72°F) [RH = 94%]
Pressure (altimeter): 29.79 inches Hg (1009.0 mb)
Winds: from the E (90 degrees) at 5 MPH (4 knots; 2.1 m/s)
Visibility: 5 miles ( 8 km)
Ceiling: 14000 feet AGL
Clouds: few clouds at 1200 feet AGL
few clouds at 1500 feet AGL
broken clouds at 14000 feet AGL
Weather: -TSRA  (light rain associated with thunderstorm(s))

METAR text: WBSB 041900Z 05019KT 4000 TSRA SCT012 SCT015CB BKN140 24/23 Q1009 NOSIG
Conditions at: WBSB (BRUNEI INTL AIRP, MY) observed 1900 UTC 04 June 2020
Temperature: 24.0°C (75°F)
Dewpoint: 23.0°C (73°F) [RH = 94%]
Pressure (altimeter): 29.79 inches Hg (1009.0 mb)
Winds: from the NE (50 degrees) at 22 MPH (19 knots; 9.8 m/s)
Visibility: 2.49 miles (4.01 km)
Ceiling: 14000 feet AGL
Clouds: scattered clouds at 1200 feet AGL
scattered clouds at 1500 feet AGL
broken clouds at 14000 feet AGL
Weather: TSRA  (rain associated with thunderstorm(s))

METAR text: WBSB 041830Z 04013KT 5000 -TSRA SCT014 FEW015CB BKN140 26/24 Q1010 NOSIG
Conditions at: WBSB (BRUNEI INTL AIRP, MY) observed 1830 UTC 04 June 2020
Temperature: 26.0°C (79°F)
Dewpoint: 24.0°C (75°F) [RH = 89%]
Pressure (altimeter): 29.82 inches Hg (1010.0 mb)
Winds: from the NE (40 degrees) at 15 MPH (13 knots; 6.7 m/s)
Visibility: 3 miles ( 5 km)
Ceiling: 14000 feet AGL
Clouds: scattered clouds at 1400 feet AGL
few clouds at 1500 feet AGL
broken clouds at 14000 feet AGL
Weather: -TSRA  (light rain associated with thunderstorm(s))

METAR text: WBSB 041800Z 15006KT 9999 TS FEW015 FEW016CB BKN140 27/25 Q1010 NOSIG
Conditions at: WBSB (BRUNEI INTL AIRP, MY) observed 1800 UTC 04 June 2020
Temperature: 27.0°C (81°F)
Dewpoint: 25.0°C (77°F) [RH = 89%]
Pressure (altimeter): 29.82 inches Hg (1010.0 mb)
Winds: from the SSE (150 degrees) at 7 MPH (6 knots; 3.1 m/s)
Visibility: 6 or more miles (10+ km)
Ceiling: 14000 feet AGL
Clouds: few clouds at 1500 feet AGL
few clouds at 1600 feet AGL
broken clouds at 14000 feet AGL
Weather: TS  (thunderstorm)

METAR text: WBSB 041730Z 20004KT 9999 TS FEW015 FEW016CB BKN140 27/24 Q1010 NOSIG
Conditions at: WBSB (BRUNEI INTL AIRP, MY) observed 1730 UTC 04 June 2020
Temperature: 27.0°C (81°F)
Dewpoint: 24.0°C (75°F) [RH = 84%]
Pressure (altimeter): 29.82 inches Hg (1010.0 mb)
Winds: from the SSW (200 degrees) at 5 MPH (4 knots; 2.1 m/s)
Visibility: 6 or more miles (10+ km)
Ceiling: 14000 feet AGL
Clouds: few clouds at 1500 feet AGL
few clouds at 1600 feet AGL
broken clouds at 14000 feet AGL
Weather: TS  (thunderstorm)

METAR text: WBSB 041700Z 22005KT 9999 FEW015 FEW016CB BKN140 27/24 Q1010 NOSIG
Conditions at: WBSB (BRUNEI INTL AIRP, MY) observed 1700 UTC 04 June 2020
Temperature: 27.0°C (81°F)
Dewpoint: 24.0°C (75°F) [RH = 84%]
Pressure (altimeter): 29.82 inches Hg (1010.0 mb)
Winds: from the SW (220 degrees) at 6 MPH (5 knots; 2.6 m/s)
Visibility: 6 or more miles (10+ km)
Ceiling: 14000 feet AGL
Clouds: few clouds at 1500 feet AGL
few clouds at 1600 feet AGL
broken clouds at 14000 feet AGL
Weather: no significant weather observed at this time

METAR text: WBSB 041630Z 21003KT 9999 FEW015 FEW016CB SCT140 BKN280 29/25 Q1010 NOSIG
Conditions at: WBSB (BRUNEI INTL AIRP, MY) observed 1630 UTC 04 June 2020
Temperature: 29.0°C (84°F)
Dewpoint: 25.0°C (77°F) [RH = 79%]
Pressure (altimeter): 29.82 inches Hg (1010.0 mb)
Winds: from the SSW (210 degrees) at 3 MPH (3 knots; 1.5 m/s)
Visibility: 6 or more miles (10+ km)
Ceiling: 28000 feet AGL
Clouds: few clouds at 1500 feet AGL
few clouds at 1600 feet AGL
scattered clouds at 14000 feet AGL
broken clouds at 28000 feet AGL
Weather: no significant weather observed at this time

METAR text: WBSB 041600Z 24003KT 9999 FEW015 FEW016CB SCT140 BKN280 29/25 Q1011 NOSIG
Conditions at: WBSB (BRUNEI INTL AIRP, MY) observed 1600 UTC 04 June 2020
Temperature: 29.0°C (84°F)
Dewpoint: 25.0°C (77°F) [RH = 79%]
Pressure (altimeter): 29.85 inches Hg (1011.0 mb)
Winds: from the WSW (240 degrees) at 3 MPH (3 knots; 1.5 m/s)
Visibility: 6 or more miles (10+ km)
Ceiling: 28000 feet AGL
Clouds: few clouds at 1500 feet AGL
few clouds at 1600 feet AGL
scattered clouds at 14000 feet AGL
broken clouds at 28000 feet AGL
Weather: no significant weather observed at this time

METAR text: WBSB 041530Z 18006KT 9999 FEW015 FEW016CB SCT140 BKN280 28/25 Q1011 TEMPO 7000 SHRA TSRA
Conditions at: WBSB (BRUNEI INTL AIRP, MY) observed 1530 UTC 04 June 2020
Temperature: 28.0°C (82°F)
Dewpoint: 25.0°C (77°F) [RH = 84%]
Pressure (altimeter): 29.85 inches Hg (1011.0 mb)
Winds: from the S (180 degrees) at 7 MPH (6 knots; 3.1 m/s)
Visibility: 6 or more miles (10+ km)
Ceiling: 28000 feet AGL
Clouds: few clouds at 1500 feet AGL
few clouds at 1600 feet AGL
scattered clouds at 14000 feet AGL
broken clouds at 28000 feet AGL
Weather: no significant weather observed at this time

METAR text: WBSB 041500Z 18006KT 9999 FEW015 FEW016CB SCT140 BKN280 28/25 Q1011 TEMPO 7000 SHRA TSRA
Conditions at: WBSB (BRUNEI INTL AIRP, MY) observed 1500 UTC 04 June 2020
Temperature: 28.0°C (82°F)
Dewpoint: 25.0°C (77°F) [RH = 84%]
Pressure (altimeter): 29.85 inches Hg (1011.0 mb)
Winds: from the S (180 degrees) at 7 MPH (6 knots; 3.1 m/s)
Visibility: 6 or more miles (10+ km)
Ceiling: 28000 feet AGL
Clouds: few clouds at 1500 feet AGL
few clouds at 1600 feet AGL
scattered clouds at 14000 feet AGL
broken clouds at 28000 feet AGL
Weather: no significant weather observed at this time

METAR text: WBSB 041430Z 20006KT 9999 FEW015 FEW016CB SCT140 BKN280 29/25 Q1010 TEMPO 7000 SHRA TSRA
Conditions at: WBSB (BRUNEI INTL AIRP, MY) observed 1430 UTC 04 June 2020
Temperature: 29.0°C (84°F)
Dewpoint: 25.0°C (77°F) [RH = 79%]
Pressure (altimeter): 29.82 inches Hg (1010.0 mb)
Winds: from the SSW (200 degrees) at 7 MPH (6 knots; 3.1 m/s)
Visibility: 6 or more miles (10+ km)
Ceiling: 28000 feet AGL
Clouds: few clouds at 1500 feet AGL
few clouds at 1600 feet AGL
scattered clouds at 14000 feet AGL
broken clouds at 28000 feet AGL
Weather: no significant weather observed at this time

METAR text: WBSB 041400Z 20004KT 9999 FEW015 FEW016CB SCT140 BKN280 29/25 Q1010 TEMPO 7000 SHRA TSRA
Conditions at: WBSB (BRUNEI INTL AIRP, MY) observed 1400 UTC 04 June 2020
Temperature: 29.0°C (84°F)
Dewpoint: 25.0°C (77°F) [RH = 79%]
Pressure (altimeter): 29.82 inches Hg (1010.0 mb)
Winds: from the SSW (200 degrees) at 5 MPH (4 knots; 2.1 m/s)
Visibility: 6 or more miles (10+ km)
Ceiling: 28000 feet AGL
Clouds: few clouds at 1500 feet AGL
few clouds at 1600 feet AGL
scattered clouds at 14000 feet AGL
broken clouds at 28000 feet AGL
Weather: no significant weather observed at this time

METAR text: WBSB 041330Z 20002KT 9999 FEW015 FEW016CB BKN140 29/26 Q1010 RETS TEMPO 7000 SHRA TSRA
Conditions at: WBSB (BRUNEI INTL AIRP, MY) observed 1330 UTC 04 June 2020
Temperature: 29.0°C (84°F)
Dewpoint: 26.0°C (79°F) [RH = 84%]
Pressure (altimeter): 29.82 inches Hg (1010.0 mb)
Winds: from the SSW (200 degrees) at 2 MPH (2 knots; 1.0 m/s)
Visibility: 6 or more miles (10+ km)
Ceiling: 14000 feet AGL
Clouds: few clouds at 1500 feet AGL
few clouds at 1600 feet AGL
broken clouds at 14000 feet AGL
Weather: no significant weather observed at this time

METAR text: WBSB 041300Z 35002KT 9999 FEW015 FEW016CB BKN140 30/26 Q1009 RETS TEMPO 7000 SHRA TSRA
Conditions at: WBSB (BRUNEI INTL AIRP, MY) observed 1300 UTC 04 June 2020
Temperature: 30.0°C (86°F)
Dewpoint: 26.0°C (79°F) [RH = 79%]
Pressure (altimeter): 29.79 inches Hg (1009.0 mb)
Winds: from the N (350 degrees) at 2 MPH (2 knots; 1.0 m/s)
Visibility: 6 or more miles (10+ km)
Ceiling: 14000 feet AGL
Clouds: few clouds at 1500 feet AGL
few clouds at 1600 feet AGL
broken clouds at 14000 feet AGL
Weather: no significant weather observed at this time

METAR text: WBSB 041230Z 01003KT 9999 TS SCT015 FEW016CB BKN140 30/25 Q1009 TEMPO 7000 SHRA TSRA
Conditions at: WBSB (BRUNEI INTL AIRP, MY) observed 1230 UTC 04 June 2020
Temperature: 30.0°C (86°F)
Dewpoint: 25.0°C (77°F) [RH = 75%]
Pressure (altimeter): 29.79 inches Hg (1009.0 mb)
Winds: from the N (10 degrees) at 3 MPH (3 knots; 1.5 m/s)
Visibility: 6 or more miles (10+ km)
Ceiling: 14000 feet AGL
Clouds: scattered clouds at 1500 feet AGL
few clouds at 1600 feet AGL
broken clouds at 14000 feet AGL
Weather: TS  (thunderstorm)

METAR text: WBSB 041200Z 29002KT 9999 TS SCT015 FEW016CB BKN140 30/25 Q1009 TEMPO 7000 SHRA TSRA
Conditions at: WBSB (BRUNEI INTL AIRP, MY) observed 1200 UTC 04 June 2020
Temperature: 30.0°C (86°F)
Dewpoint: 25.0°C (77°F) [RH = 75%]
Pressure (altimeter): 29.79 inches Hg (1009.0 mb)
Winds: from the WNW (290 degrees) at 2 MPH (2 knots; 1.0 m/s)
Visibility: 6 or more miles (10+ km)
Ceiling: 14000 feet AGL
Clouds: scattered clouds at 1500 feet AGL
few clouds at 1600 feet AGL
broken clouds at 14000 feet AGL
Weather: TS  (thunderstorm)

METAR text: WBSB 041130Z 29003KT 9999 TS SCT015 FEW016CB BKN140 30/25 Q1009 TEMPO 7000 SHRA TSRA
Conditions at: WBSB (BRUNEI INTL AIRP, MY) observed 1130 UTC 04 June 2020
Temperature: 30.0°C (86°F)
Dewpoint: 25.0°C (77°F) [RH = 75%]
Pressure (altimeter): 29.79 inches Hg (1009.0 mb)
Winds: from the WNW (290 degrees) at 3 MPH (3 knots; 1.5 m/s)
Visibility: 6 or more miles (10+ km)
Ceiling: 14000 feet AGL
Clouds: scattered clouds at 1500 feet AGL
few clouds at 1600 feet AGL
broken clouds at 14000 feet AGL
Weather: TS  (thunderstorm)

METAR text: WBSB 041100Z 31004KT 9999 TS SCT015 FEW016CB BKN140 30/25 Q1009 TEMPO 7000 SHRA TSRA
Conditions at: WBSB (BRUNEI INTL AIRP, MY) observed 1100 UTC 04 June 2020
Temperature: 30.0°C (86°F)
Dewpoint: 25.0°C (77°F) [RH = 75%]
Pressure (altimeter): 29.79 inches Hg (1009.0 mb)
Winds: from the NW (310 degrees) at 5 MPH (4 knots; 2.1 m/s)
Visibility: 6 or more miles (10+ km)
Ceiling: 14000 feet AGL
Clouds: scattered clouds at 1500 feet AGL
few clouds at 1600 feet AGL
broken clouds at 14000 feet AGL
Weather: TS  (thunderstorm)

METAR text: WBSB 041030Z 29005KT 9999 SCT015 FEW016CB SCT140 BKN280 31/25 Q1008 NOSIG
Conditions at: WBSB (BRUNEI INTL AIRP, MY) observed 1030 UTC 04 June 2020
Temperature: 31.0°C (88°F)
Dewpoint: 25.0°C (77°F) [RH = 71%]
Pressure (altimeter): 29.76 inches Hg (1008.0 mb)
Winds: from the WNW (290 degrees) at 6 MPH (5 knots; 2.6 m/s)
Visibility: 6 or more miles (10+ km)
Ceiling: 28000 feet AGL
Clouds: scattered clouds at 1500 feet AGL
few clouds at 1600 feet AGL
scattered clouds at 14000 feet AGL
broken clouds at 28000 feet AGL
Weather: no significant weather observed at this time

METAR text: WBSB 041000Z 33006KT 9999 FEW015 FEW016CB BKN300 31/25 Q1007 NOSIG
Conditions at: WBSB (BRUNEI INTL AIRP, MY) observed 1000 UTC 04 June 2020
Temperature: 31.0°C (88°F)
Dewpoint: 25.0°C (77°F) [RH = 71%]
Pressure (altimeter): 29.73 inches Hg (1007.0 mb)
Winds: from the NNW (330 degrees) at 7 MPH (6 knots; 3.1 m/s)
Visibility: 6 or more miles (10+ km)
Ceiling: 30000 feet AGL
Clouds: few clouds at 1500 feet AGL
few clouds at 1600 feet AGL
broken clouds at 30000 feet AGL
Weather: no significant weather observed at this time

METAR text: WBSB 040930Z 31007KT 9999 FEW015 FEW016CB BKN300 32/25 Q1007 NOSIG
Conditions at: WBSB (BRUNEI INTL AIRP, MY) observed 0930 UTC 04 June 2020
Temperature: 32.0°C (90°F)
Dewpoint: 25.0°C (77°F) [RH = 67%]
Pressure (altimeter): 29.73 inches Hg (1007.0 mb)
Winds: from the NW (310 degrees) at 8 MPH (7 knots; 3.6 m/s)
Visibility: 6 or more miles (10+ km)
Ceiling: 30000 feet AGL
Clouds: few clouds at 1500 feet AGL
few clouds at 1600 feet AGL
broken clouds at 30000 feet AGL
Weather: no significant weather observed at this time

METAR text: WBSB 040900Z 33006KT 9999 FEW015 FEW016CB BKN300 32/25 Q1007 NOSIG
Conditions at: WBSB (BRUNEI INTL AIRP, MY) observed 0900 UTC 04 June 2020
Temperature: 32.0°C (90°F)
Dewpoint: 25.0°C (77°F) [RH = 67%]
Pressure (altimeter): 29.73 inches Hg (1007.0 mb)
Winds: from the NNW (330 degrees) at 7 MPH (6 knots; 3.1 m/s)
Visibility: 6 or more miles (10+ km)
Ceiling: 30000 feet AGL
Clouds: few clouds at 1500 feet AGL
few clouds at 1600 feet AGL
broken clouds at 30000 feet AGL
Weather: no significant weather observed at this time

METAR text: WBSB 040830Z 32007KT 9999 FEW015 FEW016CB BKN300 32/25 Q1007 NOSIG
Conditions at: WBSB (BRUNEI INTL AIRP, MY) observed 0830 UTC 04 June 2020
Temperature: 32.0°C (90°F)
Dewpoint: 25.0°C (77°F) [RH = 67%]
Pressure (altimeter): 29.73 inches Hg (1007.0 mb)
Winds: from the NW (320 degrees) at 8 MPH (7 knots; 3.6 m/s)
Visibility: 6 or more miles (10+ km)
Ceiling: 30000 feet AGL
Clouds: few clouds at 1500 feet AGL
few clouds at 1600 feet AGL
broken clouds at 30000 feet AGL
Weather: no significant weather observed at this time

METAR text: WBSB 040800Z 33007KT 9999 SCT015 FEW016CB BKN300 32/26 Q1007 NOSIG
Conditions at: WBSB (BRUNEI INTL AIRP, MY) observed 0800 UTC 04 June 2020
Temperature: 32.0°C (90°F)
Dewpoint: 26.0°C (79°F) [RH = 71%]
Pressure (altimeter): 29.73 inches Hg (1007.0 mb)
Winds: from the NNW (330 degrees) at 8 MPH (7 knots; 3.6 m/s)
Visibility: 6 or more miles (10+ km)
Ceiling: 30000 feet AGL
Clouds: scattered clouds at 1500 feet AGL
few clouds at 1600 feet AGL
broken clouds at 30000 feet AGL
Weather: no significant weather observed at this time

METAR text: WBSB 040730Z 32008KT 9999 SCT015 FEW016CB BKN300 32/26 Q1007 NOSIG
Conditions at: WBSB (BRUNEI INTL AIRP, MY) observed 0730 UTC 04 June 2020
Temperature: 32.0°C (90°F)
Dewpoint: 26.0°C (79°F) [RH = 71%]
Pressure (altimeter): 29.73 inches Hg (1007.0 mb)
Winds: from the NW (320 degrees) at 9 MPH (8 knots; 4.1 m/s)
Visibility: 6 or more miles (10+ km)
Ceiling: 30000 feet AGL
Clouds: scattered clouds at 1500 feet AGL
few clouds at 1600 feet AGL
broken clouds at 30000 feet AGL
Weather: no significant weather observed at this time

METAR text: WBSB 040700Z 32007KT 9999 SCT015 FEW016CB BKN300 33/26 Q1007 NOSIG
Conditions at: WBSB (BRUNEI INTL AIRP, MY) observed 0700 UTC 04 June 2020
Temperature: 33.0°C (91°F)
Dewpoint: 26.0°C (79°F) [RH = 67%]
Pressure (altimeter): 29.73 inches Hg (1007.0 mb)
Winds: from the NW (320 degrees) at 8 MPH (7 knots; 3.6 m/s)
Visibility: 6 or more miles (10+ km)
Ceiling: 30000 feet AGL
Clouds: scattered clouds at 1500 feet AGL
few clouds at 1600 feet AGL
broken clouds at 30000 feet AGL
Weather: no significant weather observed at this time

METAR text: WBSB 040630Z 31006KT 9999 SCT015 BKN300 33/26 Q1008 NOSIG
Conditions at: WBSB (BRUNEI INTL AIRP, MY) observed 0630 UTC 04 June 2020
Temperature: 33.0°C (91°F)
Dewpoint: 26.0°C (79°F) [RH = 67%]
Pressure (altimeter): 29.76 inches Hg (1008.0 mb)
Winds: from the NW (310 degrees) at 7 MPH (6 knots; 3.1 m/s)
Visibility: 6 or more miles (10+ km)
Ceiling: 30000 feet AGL
Clouds: scattered clouds at 1500 feet AGL
broken clouds at 30000 feet AGL
Weather: no significant weather observed at this time

METAR text: WBSB 040600Z 34006KT 9999 SCT015 FEW016CB BKN300 32/26 Q1009 NOSIG
Conditions at: WBSB (BRUNEI INTL AIRP, MY) observed 0600 UTC 04 June 2020
Temperature: 32.0°C (90°F)
Dewpoint: 26.0°C (79°F) [RH = 71%]
Pressure (altimeter): 29.79 inches Hg (1009.0 mb)
Winds: from the NNW (340 degrees) at 7 MPH (6 knots; 3.1 m/s)
Visibility: 6 or more miles (10+ km)
Ceiling: 30000 feet AGL
Clouds: scattered clouds at 1500 feet AGL
few clouds at 1600 feet AGL
broken clouds at 30000 feet AGL
Weather: no significant weather observed at this time

METAR text: WBSB 040530Z 33007KT 9999 SCT015 FEW016CB BKN300 32/26 Q1009 NOSIG
Conditions at: WBSB (BRUNEI INTL AIRP, MY) observed 0530 UTC 04 June 2020
Temperature: 32.0°C (90°F)
Dewpoint: 26.0°C (79°F) [RH = 71%]
Pressure (altimeter): 29.79 inches Hg (1009.0 mb)
Winds: from the NNW (330 degrees) at 8 MPH (7 knots; 3.6 m/s)
Visibility: 6 or more miles (10+ km)
Ceiling: 30000 feet AGL
Clouds: scattered clouds at 1500 feet AGL
few clouds at 1600 feet AGL
broken clouds at 30000 feet AGL
Weather: no significant weather observed at this time

METAR text: WBSB 040500Z 32006KT 9999 SCT015 FEW016CB BKN300 32/26 Q1009 NOSIG
Conditions at: WBSB (BRUNEI INTL AIRP, MY) observed 0500 UTC 04 June 2020
Temperature: 32.0°C (90°F)
Dewpoint: 26.0°C (79°F) [RH = 71%]
Pressure (altimeter): 29.79 inches Hg (1009.0 mb)
Winds: from the NW (320 degrees) at 7 MPH (6 knots; 3.1 m/s)
Visibility: 6 or more miles (10+ km)
Ceiling: 30000 feet AGL
Clouds: scattered clouds at 1500 feet AGL
few clouds at 1600 feet AGL
broken clouds at 30000 feet AGL
Weather: no significant weather observed at this time

METAR text: WBSB 040430Z 31009KT 9999 SCT015 FEW016CB BKN300 32/26 Q1010 NOSIG
Conditions at: WBSB (BRUNEI INTL AIRP, MY) observed 0430 UTC 04 June 2020
Temperature: 32.0°C (90°F)
Dewpoint: 26.0°C (79°F) [RH = 71%]
Pressure (altimeter): 29.82 inches Hg (1010.0 mb)
Winds: from the NW (310 degrees) at 10 MPH (9 knots; 4.6 m/s)
Visibility: 6 or more miles (10+ km)
Ceiling: 30000 feet AGL
Clouds: scattered clouds at 1500 feet AGL
few clouds at 1600 feet AGL
broken clouds at 30000 feet AGL
Weather: no significant weather observed at this time

METAR text: WBSB 040400Z 32004KT 9999 SCT015 FEW016CB BKN300 32/26 Q1010 NOSIG
Conditions at: WBSB (BRUNEI INTL AIRP, MY) observed 0400 UTC 04 June 2020
Temperature: 32.0°C (90°F)
Dewpoint: 26.0°C (79°F) [RH = 71%]
Pressure (altimeter): 29.82 inches Hg (1010.0 mb)
Winds: from the NW (320 degrees) at 5 MPH (4 knots; 2.1 m/s)
Visibility: 6 or more miles (10+ km)
Ceiling: 30000 feet AGL
Clouds: scattered clouds at 1500 feet AGL
few clouds at 1600 feet AGL
broken clouds at 30000 feet AGL
Weather: no significant weather observed at this time

METAR text: WBSB 040330Z 35003KT 9999 SCT015 FEW016CB BKN300 32/26 Q1010 NOSIG
Conditions at: WBSB (BRUNEI INTL AIRP, MY) observed 0330 UTC 04 June 2020
Temperature: 32.0°C (90°F)
Dewpoint: 26.0°C (79°F) [RH = 71%]
Pressure (altimeter): 29.82 inches Hg (1010.0 mb)
Winds: from the N (350 degrees) at 3 MPH (3 knots; 1.5 m/s)
Visibility: 6 or more miles (10+ km)
Ceiling: 30000 feet AGL
Clouds: scattered clouds at 1500 feet AGL
few clouds at 1600 feet AGL
broken clouds at 30000 feet AGL
Weather: no significant weather observed at this time

METAR text: WBSB 040300Z 33005KT 9999 SCT015 FEW016CB BKN300 31/25 Q1011 NOSIG
Conditions at: WBSB (BRUNEI INTL AIRP, MY) observed 0300 UTC 04 June 2020
Temperature: 31.0°C (88°F)
Dewpoint: 25.0°C (77°F) [RH = 71%]
Pressure (altimeter): 29.85 inches Hg (1011.0 mb)
Winds: from the NNW (330 degrees) at 6 MPH (5 knots; 2.6 m/s)
Visibility: 6 or more miles (10+ km)
Ceiling: 30000 feet AGL
Clouds: scattered clouds at 1500 feet AGL
few clouds at 1600 feet AGL
broken clouds at 30000 feet AGL
Weather: no significant weather observed at this time

METAR text: WBSB 040230Z 35005KT 9999 SCT015 FEW016CB BKN300 31/26 Q1011 NOSIG
Conditions at: WBSB (BRUNEI INTL AIRP, MY) observed 0230 UTC 04 June 2020
Temperature: 31.0°C (88°F)
Dewpoint: 26.0°C (79°F) [RH = 75%]
Pressure (altimeter): 29.85 inches Hg (1011.0 mb)
Winds: from the N (350 degrees) at 6 MPH (5 knots; 2.6 m/s)
Visibility: 6 or more miles (10+ km)
Ceiling: 30000 feet AGL
Clouds: scattered clouds at 1500 feet AGL
few clouds at 1600 feet AGL
broken clouds at 30000 feet AGL
Weather: no significant weather observed at this time

METAR text: WBSB 040200Z 03003KT 9999 SCT015 FEW016CB BKN300 31/26 Q1011 NOSIG
Conditions at: WBSB (BRUNEI INTL AIRP, MY) observed 0200 UTC 04 June 2020
Temperature: 31.0°C (88°F)
Dewpoint: 26.0°C (79°F) [RH = 75%]
Pressure (altimeter): 29.85 inches Hg (1011.0 mb)
Winds: from the NNE (30 degrees) at 3 MPH (3 knots; 1.5 m/s)
Visibility: 6 or more miles (10+ km)
Ceiling: 30000 feet AGL
Clouds: scattered clouds at 1500 feet AGL
few clouds at 1600 feet AGL
broken clouds at 30000 feet AGL
Weather: no significant weather observed at this time

METAR text: WBSB 040130Z 27003KT 9999 SCT015 FEW016CB BKN300 30/26 Q1011 NOSIG
Conditions at: WBSB (BRUNEI INTL AIRP, MY) observed 0130 UTC 04 June 2020
Temperature: 30.0°C (86°F)
Dewpoint: 26.0°C (79°F) [RH = 79%]
Pressure (altimeter): 29.85 inches Hg (1011.0 mb)
Winds: from the W (270 degrees) at 3 MPH (3 knots; 1.5 m/s)
Visibility: 6 or more miles (10+ km)
Ceiling: 30000 feet AGL
Clouds: scattered clouds at 1500 feet AGL
few clouds at 1600 feet AGL
broken clouds at 30000 feet AGL
Weather: no significant weather observed at this time

METAR text: WBSB 040100Z 17003KT 9999 SCT015 FEW016CB BKN300 29/26 Q1012 NOSIG
Conditions at: WBSB (BRUNEI INTL AIRP, MY) observed 0100 UTC 04 June 2020
Temperature: 29.0°C (84°F)
Dewpoint: 26.0°C (79°F) [RH = 84%]
Pressure (altimeter): 29.88 inches Hg (1012.0 mb)
Winds: from the S (170 degrees) at 3 MPH (3 knots; 1.5 m/s)
Visibility: 6 or more miles (10+ km)
Ceiling: 30000 feet AGL
Clouds: scattered clouds at 1500 feet AGL
few clouds at 1600 feet AGL
broken clouds at 30000 feet AGL
Weather: no significant weather observed at this time

METAR text: WBSB 040030Z 18003KT 9999 FEW015 FEW016CB BKN300 28/25 Q1011 NOSIG
Conditions at: WBSB (BRUNEI INTL AIRP, MY) observed 0030 UTC 04 June 2020
Temperature: 28.0°C (82°F)
Dewpoint: 25.0°C (77°F) [RH = 84%]
Pressure (altimeter): 29.85 inches Hg (1011.0 mb)
Winds: from the S (180 degrees) at 3 MPH (3 knots; 1.5 m/s)
Visibility: 6 or more miles (10+ km)
Ceiling: 30000 feet AGL
Clouds: few clouds at 1500 feet AGL
few clouds at 1600 feet AGL
broken clouds at 30000 feet AGL
Weather: no significant weather observed at this time

METAR text: WBSB 040000Z 19004KT 9999 FEW015 FEW016CB BKN300 28/25 Q1011 NOSIG
Conditions at: WBSB (BRUNEI INTL AIRP, MY) observed 0000 UTC 04 June 2020
Temperature: 28.0°C (82°F)
Dewpoint: 25.0°C (77°F) [RH = 84%]
Pressure (altimeter): 29.85 inches Hg (1011.0 mb)
Winds: from the S (190 degrees) at 5 MPH (4 knots; 2.1 m/s)
Visibility: 6 or more miles (10+ km)
Ceiling: 30000 feet AGL
Clouds: few clouds at 1500 feet AGL
few clouds at 1600 feet AGL
broken clouds at 30000 feet AGL
Weather: no significant weather observed at this time

METAR text: WBSB 032330Z 21003KT 9999 FEW014 FEW015CB BKN300 27/25 Q1011 NOSIG
Conditions at: WBSB (BRUNEI INTL AIRP, MY) observed 2330 UTC 03 June 2020
Temperature: 27.0°C (81°F)
Dewpoint: 25.0°C (77°F) [RH = 89%]
Pressure (altimeter): 29.85 inches Hg (1011.0 mb)
Winds: from the SSW (210 degrees) at 3 MPH (3 knots; 1.5 m/s)
Visibility: 6 or more miles (10+ km)
Ceiling: 30000 feet AGL
Clouds: few clouds at 1400 feet AGL
few clouds at 1500 feet AGL
broken clouds at 30000 feet AGL
Weather: no significant weather observed at this time

METAR text: WBSB 032300Z 20003KT 9999 FEW004 FEW015 BKN300 26/25 Q1010 NOSIG
Conditions at: WBSB (BRUNEI INTL AIRP, MY) observed 2300 UTC 03 June 2020
Temperature: 26.0°C (79°F)
Dewpoint: 25.0°C (77°F) [RH = 94%]
Pressure (altimeter): 29.82 inches Hg (1010.0 mb)
Winds: from the SSW (200 degrees) at 3 MPH (3 knots; 1.5 m/s)
Visibility: 6 or more miles (10+ km)
Ceiling: 30000 feet AGL
Clouds: few clouds at 400 feet AGL
few clouds at 1500 feet AGL
broken clouds at 30000 feet AGL
Weather: no significant weather observed at this time

METAR text: WBSB 032230Z 17002KT 9999 FEW004 FEW015CB BKN300 26/25 Q1010 NOSIG
Conditions at: WBSB (BRUNEI INTL AIRP, MY) observed 2230 UTC 03 June 2020
Temperature: 26.0°C (79°F)
Dewpoint: 25.0°C (77°F) [RH = 94%]
Pressure (altimeter): 29.82 inches Hg (1010.0 mb)
Winds: from the S (170 degrees) at 2 MPH (2 knots; 1.0 m/s)
Visibility: 6 or more miles (10+ km)
Ceiling: 30000 feet AGL
Clouds: few clouds at 400 feet AGL
few clouds at 1500 feet AGL
broken clouds at 30000 feet AGL
Weather: no significant weather observed at this time

METAR text: WBSB 032200Z 22004KT 9999 FEW004 FEW015CB BKN300 26/25 Q1010 NOSIG
Conditions at: WBSB (BRUNEI INTL AIRP, MY) observed 2200 UTC 03 June 2020
Temperature: 26.0°C (79°F)
Dewpoint: 25.0°C (77°F) [RH = 94%]
Pressure (altimeter): 29.82 inches Hg (1010.0 mb)
Winds: from the SW (220 degrees) at 5 MPH (4 knots; 2.1 m/s)
Visibility: 6 or more miles (10+ km)
Ceiling: 30000 feet AGL
Clouds: few clouds at 400 feet AGL
few clouds at 1500 feet AGL
broken clouds at 30000 feet AGL
Weather: no significant weather observed at this time

METAR text: WBSB 032130Z 23002KT 9999 FEW004 FEW015CB BKN300 26/24 Q1010 NOSIG
Conditions at: WBSB (BRUNEI INTL AIRP, MY) observed 2130 UTC 03 June 2020
Temperature: 26.0°C (79°F)
Dewpoint: 24.0°C (75°F) [RH = 89%]
Pressure (altimeter): 29.82 inches Hg (1010.0 mb)
Winds: from the SW (230 degrees) at 2 MPH (2 knots; 1.0 m/s)
Visibility: 6 or more miles (10+ km)
Ceiling: 30000 feet AGL
Clouds: few clouds at 400 feet AGL
few clouds at 1500 feet AGL
broken clouds at 30000 feet AGL
Weather: no significant weather observed at this time

METAR text: WBSB 032100Z 22001KT 9999 FEW004 FEW015CB BKN300 26/24 Q1010 NOSIG
Conditions at: WBSB (BRUNEI INTL AIRP, MY) observed 2100 UTC 03 June 2020
Temperature: 26.0°C (79°F)
Dewpoint: 24.0°C (75°F) [RH = 89%]
Pressure (altimeter): 29.82 inches Hg (1010.0 mb)
Winds: from the SW (220 degrees) at 1 MPH (1 knots; 0.5 m/s)
Visibility: 6 or more miles (10+ km)
Ceiling: 30000 feet AGL
Clouds: few clouds at 400 feet AGL
few clouds at 1500 feet AGL
broken clouds at 30000 feet AGL
Weather: no significant weather observed at this time

METAR text: WBSB 032030Z 22001KT 9999 FEW014 FEW015CB BKN300 27/25 Q1009 NOSIG
Conditions at: WBSB (BRUNEI INTL AIRP, MY) observed 2030 UTC 03 June 2020
Temperature: 27.0°C (81°F)
Dewpoint: 25.0°C (77°F) [RH = 89%]
Pressure (altimeter): 29.79 inches Hg (1009.0 mb)
Winds: from the SW (220 degrees) at 1 MPH (1 knots; 0.5 m/s)
Visibility: 6 or more miles (10+ km)
Ceiling: 30000 feet AGL
Clouds: few clouds at 1400 feet AGL
few clouds at 1500 feet AGL
broken clouds at 30000 feet AGL
Weather: no significant weather observed at this time

METAR text: WBSB 032000Z 28001KT 9999 FEW014 FEW015CB BKN300 27/25 Q1009 NOSIG
Conditions at: WBSB (BRUNEI INTL AIRP, MY) observed 2000 UTC 03 June 2020
Temperature: 27.0°C (81°F)
Dewpoint: 25.0°C (77°F) [RH = 89%]
Pressure (altimeter): 29.79 inches Hg (1009.0 mb)
Winds: from the W (280 degrees) at 1 MPH (1 knots; 0.5 m/s)
Visibility: 6 or more miles (10+ km)
Ceiling: 30000 feet AGL
Clouds: few clouds at 1400 feet AGL
few clouds at 1500 feet AGL
broken clouds at 30000 feet AGL
Weather: no significant weather observed at this time

METAR text: WBSB 031930Z 24002KT 9999 FEW014 BKN300 27/25 Q1009 NOSIG
Conditions at: WBSB (BRUNEI INTL AIRP, MY) observed 1930 UTC 03 June 2020
Temperature: 27.0°C (81°F)
Dewpoint: 25.0°C (77°F) [RH = 89%]
Pressure (altimeter): 29.79 inches Hg (1009.0 mb)
Winds: from the WSW (240 degrees) at 2 MPH (2 knots; 1.0 m/s)
Visibility: 6 or more miles (10+ km)
Ceiling: 30000 feet AGL
Clouds: few clouds at 1400 feet AGL
broken clouds at 30000 feet AGL
Weather: no significant weather observed at this time

METAR text: WBSB 031900Z 20003KT 9999 FEW014 BKN300 27/25 Q1009 NOSIG
Conditions at: WBSB (BRUNEI INTL AIRP, MY) observed 1900 UTC 03 June 2020
Temperature: 27.0°C (81°F)
Dewpoint: 25.0°C (77°F) [RH = 89%]
Pressure (altimeter): 29.79 inches Hg (1009.0 mb)
Winds: from the SSW (200 degrees) at 3 MPH (3 knots; 1.5 m/s)
Visibility: 6 or more miles (10+ km)
Ceiling: 30000 feet AGL
Clouds: few clouds at 1400 feet AGL
broken clouds at 30000 feet AGL
Weather: no significant weather observed at this time

METAR text: WBSB 031830Z 20001KT 9999 FEW014 BKN300 27/25 Q1010 NOSIG
Conditions at: WBSB (BRUNEI INTL AIRP, MY) observed 1830 UTC 03 June 2020
Temperature: 27.0°C (81°F)
Dewpoint: 25.0°C (77°F) [RH = 89%]
Pressure (altimeter): 29.82 inches Hg (1010.0 mb)
Winds: from the SSW (200 degrees) at 1 MPH (1 knots; 0.5 m/s)
Visibility: 6 or more miles (10+ km)
Ceiling: 30000 feet AGL
Clouds: few clouds at 1400 feet AGL
broken clouds at 30000 feet AGL
Weather: no significant weather observed at this time

METAR text: WBSB 031800Z 22001KT 9999 FEW014 BKN300 27/25 Q1010 NOSIG
Conditions at: WBSB (BRUNEI INTL AIRP, MY) observed 1800 UTC 03 June 2020
Temperature: 27.0°C (81°F)
Dewpoint: 25.0°C (77°F) [RH = 89%]
Pressure (altimeter): 29.82 inches Hg (1010.0 mb)
Winds: from the SW (220 degrees) at 1 MPH (1 knots; 0.5 m/s)
Visibility: 6 or more miles (10+ km)
Ceiling: 30000 feet AGL
Clouds: few clouds at 1400 feet AGL
broken clouds at 30000 feet AGL
Weather: no significant weather observed at this time

METAR text: WBSB 031730Z 24001KT 9999 FEW014 BKN300 27/25 Q1010 NOSIG
Conditions at: WBSB (BRUNEI INTL AIRP, MY) observed 1730 UTC 03 June 2020
Temperature: 27.0°C (81°F)
Dewpoint: 25.0°C (77°F) [RH = 89%]
Pressure (altimeter): 29.82 inches Hg (1010.0 mb)
Winds: from the WSW (240 degrees) at 1 MPH (1 knots; 0.5 m/s)
Visibility: 6 or more miles (10+ km)
Ceiling: 30000 feet AGL
Clouds: few clouds at 1400 feet AGL
broken clouds at 30000 feet AGL
Weather: no significant weather observed at this time

METAR text: WBSB 031700Z 25002KT 9999 FEW014 BKN300 27/25 Q1010 NOSIG
Conditions at: WBSB (BRUNEI INTL AIRP, MY) observed 1700 UTC 03 June 2020
Temperature: 27.0°C (81°F)
Dewpoint: 25.0°C (77°F) [RH = 89%]
Pressure (altimeter): 29.82 inches Hg (1010.0 mb)
Winds: from the WSW (250 degrees) at 2 MPH (2 knots; 1.0 m/s)
Visibility: 6 or more miles (10+ km)
Ceiling: 30000 feet AGL
Clouds: few clouds at 1400 feet AGL
broken clouds at 30000 feet AGL
Weather: no significant weather observed at this time

METAR text: WBSB 031630Z 22001KT 9999 FEW014 BKN300 27/25 Q1010 NOSIG
Conditions at: WBSB (BRUNEI INTL AIRP, MY) observed 1630 UTC 03 June 2020
Temperature: 27.0°C (81°F)
Dewpoint: 25.0°C (77°F) [RH = 89%]
Pressure (altimeter): 29.82 inches Hg (1010.0 mb)
Winds: from the SW (220 degrees) at 1 MPH (1 knots; 0.5 m/s)
Visibility: 6 or more miles (10+ km)
Ceiling: 30000 feet AGL
Clouds: few clouds at 1400 feet AGL
broken clouds at 30000 feet AGL
Weather: no significant weather observed at this time

METAR text: WBSB 031600Z 24001KT 9999 FEW014 BKN300 28/25 Q1011 NOSIG
Conditions at: WBSB (BRUNEI INTL AIRP, MY) observed 1600 UTC 03 June 2020
Temperature: 28.0°C (82°F)
Dewpoint: 25.0°C (77°F) [RH = 84%]
Pressure (altimeter): 29.85 inches Hg (1011.0 mb)
Winds: from the WSW (240 degrees) at 1 MPH (1 knots; 0.5 m/s)
Visibility: 6 or more miles (10+ km)
Ceiling: 30000 feet AGL
Clouds: few clouds at 1400 feet AGL
broken clouds at 30000 feet AGL
Weather: no significant weather observed at this time

METAR text: WBSB 031530Z 21002KT 9999 FEW014 BKN300 28/25 Q1011 NOSIG
Conditions at: WBSB (BRUNEI INTL AIRP, MY) observed 1530 UTC 03 June 2020
Temperature: 28.0°C (82°F)
Dewpoint: 25.0°C (77°F) [RH = 84%]
Pressure (altimeter): 29.85 inches Hg (1011.0 mb)
Winds: from the SSW (210 degrees) at 2 MPH (2 knots; 1.0 m/s)
Visibility: 6 or more miles (10+ km)
Ceiling: 30000 feet AGL
Clouds: few clouds at 1400 feet AGL
broken clouds at 30000 feet AGL
Weather: no significant weather observed at this time

Forecast for: WBSB (BRUNEI INTL AIRP, MY)
Text: TAF WBSB 042300Z 0500/0606 03009KT 9999 SCT012 FEW015CB BKN150
Forecast period: 0000 UTC 05 June 2020 to 0600 UTC 06 June 2020
Forecast type: FROM: standard forecast or significant change
Winds: from the NNE (30 degrees) at 10 MPH (9 knots; 4.6 m/s)
Visibility: 6 or more miles 10+ km)
Ceiling: 15000 feet AGL
Clouds: scattered clouds at 1200 feet AGL
few clouds at 1500 feet AGL
broken clouds at 15000 feet AGL
Weather: no significant weather forecast for this period
Text: TEMPO 0504/0506 6000 TSRA
Forecast period: 0400 to 0600 UTC 05 June 2020
Forecast type: TEMPORARY: The following changes expected for less than half the time period
Visibility: 4 miles (6 km)
Ceiling: unknown
Clouds: missing
Weather: TSRA  (rain associated with thunderstorm(s))